createdAt,value
2019-01-29T00:02:48.754Z,94426.33
2019-01-29T00:05:37.891Z,94430.84
2019-01-29T00:08:27.311Z,94429.56
2019-01-29T00:11:16.598Z,94436.09
2019-01-29T00:14:05.798Z,94437.54
2019-01-29T00:16:54.812Z,94434.50
2019-01-29T00:19:42.717Z,94435.78
2019-01-29T00:22:33.489Z,94435.16
2019-01-29T00:25:22.293Z,94441.85
2019-01-29T00:28:11.260Z,94438.12
2019-01-29T00:31:00.430Z,94450.02
2019-01-29T00:33:48.832Z,94446.86
2019-01-29T00:36:37.494Z,94450.89
2019-01-29T00:39:27.043Z,94454.89
2019-01-29T00:42:15.870Z,94459.87
2019-01-29T00:45:05.396Z,94459.41
2019-01-29T00:47:54.426Z,94465.48
2019-01-29T00:50:43.121Z,94464.84
2019-01-29T00:53:32.280Z,94466.67
2019-01-29T00:56:22.237Z,94457.20
2019-01-29T00:59:11.360Z,94475.16
2019-01-29T01:02:00.465Z,94472.92
2019-01-29T01:04:48.458Z,94482.36
2019-01-29T01:07:37.289Z,94487.14
2019-01-29T01:10:26.376Z,94482.33
2019-01-29T01:13:14.745Z,94489.96
2019-01-29T01:16:03.699Z,94490.61
2019-01-29T01:18:52.595Z,94491.24
2019-01-29T01:21:41.592Z,94502.91
2019-01-29T01:24:30.068Z,94509.22
2019-01-29T01:27:18.155Z,94507.85
2019-01-29T01:30:08.421Z,94508.39
2019-01-29T01:32:57.144Z,94511.39
2019-01-29T01:35:45.934Z,94524.15
2019-01-29T01:38:35.143Z,94527.42
2019-01-29T01:41:23.666Z,94528.37
2019-01-29T01:44:12.018Z,94534.85
2019-01-29T01:47:01.680Z,94529.41
2019-01-29T01:49:50.530Z,94539.23
2019-01-29T01:52:39.881Z,94539.55
2019-01-29T01:55:29.338Z,94540.18
2019-01-29T01:58:17.773Z,94541.25
2019-01-29T02:01:06.022Z,94552.19
2019-01-29T02:03:54.586Z,94552.78
2019-01-29T02:06:43.444Z,94549.38
2019-01-29T02:09:32.656Z,94556.83
2019-01-29T02:12:21.318Z,94553.50
2019-01-29T02:15:10.395Z,94556.67
2019-01-29T02:17:58.571Z,94557.95
2019-01-29T02:20:47.548Z,94568.52
2019-01-29T02:23:35.411Z,94573.33
2019-01-29T02:26:24.946Z,94575.94
2019-01-29T02:29:13.609Z,94586.27
2019-01-29T02:32:02.029Z,94586.27
2019-01-29T02:34:50.412Z,94584.27
2019-01-29T02:37:39.046Z,94593.83
2019-01-29T02:40:29.262Z,94593.33
2019-01-29T02:43:18.083Z,94594.75
2019-01-29T02:46:06.819Z,94585.80
2019-01-29T02:48:56.130Z,94600.62
2019-01-29T02:51:45.078Z,94600.62
2019-01-29T02:54:33.418Z,94609.05
2019-01-29T02:57:22.353Z,94609.09
2019-01-29T03:00:16.734Z,94610.70
2019-01-29T03:03:04.946Z,94613.96
2019-01-29T03:05:54.276Z,94620.68
2019-01-29T03:08:43.455Z,94613.23
2019-01-29T03:11:32.343Z,94617.80
2019-01-29T03:14:21.630Z,94624.30
2019-01-29T03:17:10.552Z,94623.64
2019-01-29T03:20:01.003Z,94612.68
2019-01-29T03:22:49.833Z,94628.79
2019-01-29T03:25:38.420Z,94638.02
2019-01-29T03:28:26.746Z,94631.93
2019-01-29T03:31:14.877Z,94635.87
2019-01-29T03:34:03.313Z,94635.14
2019-01-29T03:36:51.773Z,94642.56
2019-01-29T03:39:40.092Z,94640.25
2019-01-29T03:42:28.501Z,94640.25
2019-01-29T03:45:18.055Z,94654.65
2019-01-29T03:48:07.159Z,94654.65
2019-01-29T03:50:55.525Z,94657.20
2019-01-29T03:53:44.142Z,94661.55
2019-01-29T03:56:33.224Z,94661.36
2019-01-29T03:59:22.040Z,94667.47
2019-01-29T04:02:25.217Z,94671.02
2019-01-29T04:05:10.092Z,94671.02
2019-01-29T04:07:58.744Z,94675.38
2019-01-29T04:10:47.702Z,94679.48
2019-01-29T04:13:36.804Z,94684.94
2019-01-29T04:16:25.776Z,94690.52
2019-01-29T04:19:13.839Z,94683.47
2019-01-29T04:22:02.684Z,94686.69
2019-01-29T04:24:51.603Z,94688.58
2019-01-29T04:27:40.799Z,94682.15
2019-01-29T04:30:33.415Z,94698.49
2019-01-29T04:33:22.546Z,94698.05
2019-01-29T04:36:10.403Z,94701.88
2019-01-29T04:38:59.637Z,94700.52
2019-01-29T04:41:47.891Z,94703.42
2019-01-29T04:44:37.332Z,94702.47
2019-01-29T04:47:26.737Z,94702.44
2019-01-29T04:50:20.222Z,94702.28
2019-01-29T04:53:09.131Z,94696.37
2019-01-29T04:55:59.087Z,94709.16
2019-01-29T04:58:47.406Z,94706.64
2019-01-29T05:01:36.036Z,94711.09
2019-01-29T05:04:24.813Z,94710.70
2019-01-29T05:07:14.327Z,94713.22
2019-01-29T05:10:52.678Z,94717.09
2019-01-29T05:13:42.176Z,94717.09
2019-01-29T05:16:30.903Z,94723.89
2019-01-29T05:19:19.925Z,94719.80
2019-01-29T05:22:12.463Z,94713.95
2019-01-29T05:25:02.190Z,94723.48
2019-01-29T05:27:51.771Z,94722.47
2019-01-29T05:30:40.999Z,94728.68
2019-01-29T05:33:34.126Z,94730.00
2019-01-29T05:36:23.468Z,94727.73
2019-01-29T05:39:15.490Z,94727.59
2019-01-29T05:42:04.117Z,94730.72
2019-01-29T05:44:52.555Z,94716.83
2019-01-29T05:47:41.630Z,94731.30
2019-01-29T05:50:30.910Z,94736.09
2019-01-29T05:53:19.316Z,94741.20
2019-01-29T05:56:07.863Z,94743.63
2019-01-29T05:58:58.195Z,94745.49
2019-01-29T06:01:46.309Z,94749.41
2019-01-29T06:04:36.184Z,94753.78
2019-01-29T06:07:25.149Z,94757.13
2019-01-29T06:10:15.011Z,94757.58
2019-01-29T06:13:04.593Z,94754.75
2019-01-29T06:15:53.870Z,94752.62
2019-01-29T06:18:42.418Z,94753.64
2019-01-29T06:21:31.143Z,94754.54
2019-01-29T06:24:25.648Z,94748.46
2019-01-29T06:27:10.537Z,94760.32
2019-01-29T06:29:58.922Z,94755.87
2019-01-29T06:32:47.112Z,94757.91
2019-01-29T06:35:35.819Z,94765.64
2019-01-29T06:38:24.638Z,94772.09
2019-01-29T06:41:14.147Z,94771.21
2019-01-29T06:44:02.792Z,94777.30
2019-01-29T06:46:52.176Z,94778.17
2019-01-29T06:49:40.846Z,94784.95
2019-01-29T06:52:29.409Z,94778.22
2019-01-29T06:55:20.096Z,94773.51
2019-01-29T06:58:08.314Z,94785.90
2019-01-29T07:00:56.723Z,94787.59
2019-01-29T07:03:44.808Z,94790.30
2019-01-29T07:06:33.975Z,94788.88
2019-01-29T07:09:22.269Z,94790.82
2019-01-29T07:12:10.864Z,94797.14
2019-01-29T07:14:59.028Z,94801.31
2019-01-29T07:17:49.492Z,94801.50
2019-01-29T07:20:39.287Z,94806.59
2019-01-29T07:23:28.454Z,94813.84
2019-01-29T07:26:19.853Z,94815.53
2019-01-29T07:29:08.707Z,94814.25
2019-01-29T07:31:57.615Z,94818.47
2019-01-29T07:34:46.044Z,94819.60
2019-01-29T07:37:35.458Z,94817.00
2019-01-29T07:40:24.359Z,94817.57
2019-01-29T07:43:12.238Z,94827.89
2019-01-29T07:46:01.020Z,94827.68
2019-01-29T07:48:49.416Z,94826.73
2019-01-29T07:51:37.814Z,94833.08
2019-01-29T07:54:33.238Z,94828.83
2019-01-29T07:57:17.543Z,94831.80
2019-01-29T08:00:07.003Z,94837.88
2019-01-29T08:02:56.534Z,94831.39
2019-01-29T08:05:45.727Z,94824.64
2019-01-29T08:08:34.268Z,94831.77
2019-01-29T08:11:23.268Z,94827.27
2019-01-29T08:14:12.030Z,94837.59
2019-01-29T08:17:00.592Z,94835.98
2019-01-29T08:19:49.525Z,94839.02
2019-01-29T08:22:37.721Z,94845.78
2019-01-29T08:25:26.077Z,94840.99
2019-01-29T08:28:14.904Z,94845.94
2019-01-29T08:31:06.095Z,94847.87
2019-01-29T08:33:58.894Z,94844.14
2019-01-29T08:36:46.877Z,94843.22
2019-01-29T08:39:35.724Z,94841.23
2019-01-29T08:42:24.591Z,94841.75
2019-01-29T08:45:14.008Z,94847.79
2019-01-29T08:48:03.195Z,94844.47
2019-01-29T08:50:51.884Z,94836.34
2019-01-29T08:53:40.431Z,94843.70
2019-01-29T08:56:28.680Z,94839.45
2019-01-29T08:59:17.112Z,94834.59
2019-01-29T09:02:08.138Z,94835.64
2019-01-29T09:04:57.215Z,94842.13
2019-01-29T09:07:47.918Z,94835.97
2019-01-29T09:10:36.642Z,94845.77
2019-01-29T09:13:24.903Z,94841.76
2019-01-29T09:16:14.078Z,94840.48
2019-01-29T09:19:02.836Z,94835.82
2019-01-29T09:21:51.686Z,94847.25
2019-01-29T09:24:41.737Z,94841.91
2019-01-29T09:27:30.155Z,94842.97
2019-01-29T09:30:18.715Z,94856.36
2019-01-29T09:33:08.553Z,94851.38
2019-01-29T09:35:56.626Z,94860.68
2019-01-29T09:38:44.708Z,94860.49
2019-01-29T09:41:33.973Z,94863.51
2019-01-29T09:44:22.632Z,94856.30
2019-01-29T09:47:12.325Z,94841.14
2019-01-29T09:50:01.596Z,94838.66
2019-01-29T09:52:50.496Z,94831.99
2019-01-29T09:55:38.540Z,94832.69
2019-01-29T09:58:27.416Z,94835.52
2019-01-29T10:01:16.544Z,94836.02
2019-01-29T10:04:05.978Z,94823.81
2019-01-29T10:06:55.015Z,94822.61
2019-01-29T10:09:43.552Z,94817.19
2019-01-29T10:12:32.377Z,94822.86
2019-01-29T10:15:23.766Z,94805.02
2019-01-29T10:18:13.163Z,94805.75
2019-01-29T10:21:01.772Z,94801.13
2019-01-29T10:23:50.305Z,94793.63
2019-01-29T10:26:39.755Z,94793.63
2019-01-29T10:29:28.091Z,94790.36
2019-01-29T10:32:17.351Z,94783.28
2019-01-29T10:35:07.622Z,94781.23
2019-01-29T10:37:56.096Z,94777.95
2019-01-29T10:40:46.805Z,94779.16
2019-01-29T10:43:35.515Z,94772.55
2019-01-29T10:46:24.065Z,94767.52
2019-01-29T10:49:12.425Z,94760.41
2019-01-29T10:52:01.352Z,94762.40
2019-01-29T10:54:50.227Z,94745.73
2019-01-29T10:57:39.421Z,94734.52
2019-01-29T11:00:34.137Z,94734.04
2019-01-29T11:03:23.706Z,94733.26
2019-01-29T11:06:12.089Z,94713.81
2019-01-29T11:09:01.251Z,94718.63
2019-01-29T11:11:50.308Z,94718.63
2019-01-29T11:14:38.713Z,94714.13
2019-01-29T11:17:26.630Z,94711.53
2019-01-29T11:20:15.585Z,94704.79
2019-01-29T11:23:07.162Z,94710.44
2019-01-29T11:25:56.177Z,94709.13
2019-01-29T11:28:45.376Z,94708.63
2019-01-29T11:31:34.556Z,94703.47
2019-01-29T11:34:23.135Z,94706.22
2019-01-29T11:37:12.143Z,94696.13
2019-01-29T11:40:01.222Z,94693.00
2019-01-29T11:42:50.754Z,94692.88
2019-01-29T11:45:45.891Z,94693.03
2019-01-29T11:48:34.297Z,94688.70
2019-01-29T11:51:23.310Z,94688.70
2019-01-29T11:54:11.939Z,94673.45
2019-01-29T11:57:00.877Z,94679.08
2019-01-29T11:59:50.170Z,94668.97
2019-01-29T12:02:38.574Z,94660.45
2019-01-29T12:05:27.277Z,94660.45
2019-01-29T12:08:16.603Z,94655.66
2019-01-29T12:11:05.406Z,94655.66
2019-01-29T12:13:54.753Z,94658.19
2019-01-29T12:16:43.440Z,94643.25
2019-01-29T12:19:32.233Z,94648.71
2019-01-29T12:22:21.522Z,94643.39
2019-01-29T12:25:10.511Z,94633.34
2019-01-29T12:27:59.408Z,94634.55
2019-01-29T12:30:47.992Z,94626.97
2019-01-29T12:33:37.241Z,94627.81
2019-01-29T12:36:27.317Z,94623.19
2019-01-29T12:39:16.040Z,94619.77
2019-01-29T12:42:04.628Z,94619.30
2019-01-29T12:44:53.581Z,94613.64
2019-01-29T12:47:42.946Z,94607.05
2019-01-29T12:50:31.845Z,94605.63
2019-01-29T12:53:23.068Z,94603.12
2019-01-29T12:56:11.745Z,94607.65
2019-01-29T12:59:00.458Z,94605.59
2019-01-29T13:01:48.472Z,94587.50
2019-01-29T13:04:58.633Z,94587.50
2019-01-29T13:07:51.980Z,94591.72
2019-01-29T13:10:40.494Z,94584.16
2019-01-29T13:13:34.317Z,94577.67
2019-01-29T13:16:26.402Z,94570.38
2019-01-29T13:19:15.090Z,94568.26
2019-01-29T13:22:04.482Z,94566.13
2019-01-29T13:24:52.727Z,94563.09
2019-01-29T13:28:00.903Z,94564.53
2019-01-29T13:30:53.155Z,94556.54
2019-01-29T13:34:03.796Z,94553.05
2019-01-29T13:36:55.088Z,94546.22
2019-01-29T13:39:43.969Z,94536.28
2019-01-29T13:42:33.188Z,94535.11
2019-01-29T13:45:21.938Z,94531.18
2019-01-29T13:48:11.510Z,94525.19
2019-01-29T13:51:01.888Z,94530.63
2019-01-29T13:53:50.099Z,94533.41
2019-01-29T13:56:39.816Z,94529.28
2019-01-29T13:59:28.582Z,94517.67
2019-01-29T14:02:36.524Z,94512.86
2019-01-29T14:05:24.833Z,94512.73
2019-01-29T14:08:14.158Z,94511.83
2019-01-29T14:11:03.423Z,94509.53
2019-01-29T14:13:52.052Z,94499.09
2019-01-29T14:16:40.348Z,94496.74
2019-01-29T14:19:28.980Z,94494.06
2019-01-29T14:22:18.082Z,94485.02
2019-01-29T14:25:06.986Z,94489.33
2019-01-29T14:27:56.547Z,94486.05
2019-01-29T14:30:45.552Z,94483.97
2019-01-29T14:33:34.781Z,94479.34
2019-01-29T14:36:23.896Z,94474.09
2019-01-29T14:39:25.573Z,94472.84
2019-01-29T14:42:15.883Z,94470.67
2019-01-29T14:45:07.889Z,94469.59
2019-01-29T14:47:57.841Z,94475.17
2019-01-29T14:50:47.014Z,94466.22
2019-01-29T14:53:35.329Z,94466.81
2019-01-29T14:56:24.371Z,94463.35
2019-01-29T14:59:12.557Z,94459.70
2019-01-29T15:02:01.477Z,94459.47
2019-01-29T15:04:49.857Z,94458.29
2019-01-29T15:07:38.823Z,94451.26
2019-01-29T15:10:27.442Z,94444.68
2019-01-29T15:13:15.785Z,94447.56
2019-01-29T15:16:30.393Z,94449.45
2019-01-29T15:19:23.411Z,94446.42
2019-01-29T15:22:12.357Z,94445.95
2019-01-29T15:25:01.225Z,94437.97
2019-01-29T15:27:50.378Z,94436.05
2019-01-29T15:30:39.552Z,94431.88
2019-01-29T15:33:28.215Z,94427.75
2019-01-29T15:36:23.383Z,94431.58
2019-01-29T15:39:11.629Z,94432.68
2019-01-29T15:42:00.163Z,94432.68
2019-01-29T15:44:48.622Z,94436.50
2019-01-29T15:47:37.900Z,94435.22
2019-01-29T15:50:26.301Z,94429.57
2019-01-29T15:53:15.177Z,94431.77
2019-01-29T15:56:04.268Z,94429.13
2019-01-29T15:58:52.690Z,94428.77
2019-01-29T16:02:00.339Z,94429.09
2019-01-29T16:04:48.786Z,94419.87
2019-01-29T16:07:38.407Z,94425.67
2019-01-29T16:10:39.382Z,94423.27
2019-01-29T16:13:23.609Z,94413.23
2019-01-29T16:16:12.509Z,94402.67
2019-01-29T16:19:01.760Z,94399.79
2019-01-29T16:21:49.944Z,94394.28
2019-01-29T16:24:38.853Z,94391.26
2019-01-29T16:27:30.195Z,94390.20
2019-01-29T16:30:26.036Z,94390.24
2019-01-29T16:33:15.170Z,94385.81
2019-01-29T16:36:04.235Z,94391.66
2019-01-29T16:38:52.810Z,94387.69
2019-01-29T16:41:41.567Z,94387.59
2019-01-29T16:44:30.572Z,94385.23
2019-01-29T16:47:19.057Z,94377.31
2019-01-29T16:50:11.056Z,94381.05
2019-01-29T16:53:00.755Z,94373.72
2019-01-29T16:55:49.685Z,94372.31
2019-01-29T16:58:38.099Z,94366.94
2019-01-29T17:01:27.035Z,94359.98
2019-01-29T17:04:15.447Z,94362.84
2019-01-29T17:07:03.925Z,94364.41
2019-01-29T17:09:52.396Z,94359.50
2019-01-29T17:12:40.383Z,94358.97
2019-01-29T17:15:29.870Z,94349.92
2019-01-29T17:18:19.055Z,94349.88
2019-01-29T17:21:07.407Z,94346.08
2019-01-29T17:23:59.293Z,94341.90
2019-01-29T17:26:55.092Z,94338.10
2019-01-29T17:29:43.967Z,94333.23
2019-01-29T17:32:37.523Z,94330.34
2019-01-29T17:35:26.373Z,94319.98
2019-01-29T17:38:22.291Z,94320.13
2019-01-29T17:41:11.127Z,94326.95
2019-01-29T17:43:59.993Z,94326.95
2019-01-29T17:46:48.656Z,94326.30
2019-01-29T17:49:38.800Z,94311.98
2019-01-29T17:52:32.538Z,94314.20
2019-01-29T17:55:21.070Z,94316.11
2019-01-29T17:58:14.889Z,94316.11
2019-01-29T18:01:04.746Z,94309.91
2019-01-29T18:03:54.368Z,94306.95
2019-01-29T18:06:42.930Z,94303.58
2019-01-29T18:09:32.223Z,94303.58
2019-01-29T18:12:21.534Z,94294.53
2019-01-29T18:15:35.635Z,94281.66
2019-01-29T18:18:27.476Z,94281.66
2019-01-29T18:21:15.787Z,94287.56
2019-01-29T18:24:04.442Z,94283.05
2019-01-29T18:26:53.088Z,94270.70
2019-01-29T18:29:41.793Z,94274.35
2019-01-29T18:32:30.529Z,94266.00
2019-01-29T18:35:19.207Z,94266.00
2019-01-29T18:38:07.703Z,94263.86
2019-01-29T18:40:57.105Z,94245.75
2019-01-29T18:43:46.026Z,94254.81
2019-01-29T18:46:34.419Z,94250.27
2019-01-29T18:49:23.256Z,94244.30
2019-01-29T18:52:12.231Z,94244.30
2019-01-29T18:55:00.645Z,94233.52
2019-01-29T18:57:51.589Z,94228.75
2019-01-29T19:00:40.020Z,94228.75
2019-01-29T19:03:28.455Z,94223.06
2019-01-29T19:06:17.449Z,94217.31
2019-01-29T19:09:08.318Z,94208.30
2019-01-29T19:11:58.854Z,94208.30
2019-01-29T19:15:46.989Z,94197.60
2019-01-29T19:18:38.527Z,94197.50
2019-01-29T19:21:32.894Z,94187.81
2019-01-29T19:24:25.390Z,94187.81
2019-01-29T19:27:16.218Z,94182.25
2019-01-29T19:30:08.208Z,94171.11
2019-01-29T19:32:56.864Z,94171.11
2019-01-29T19:35:54.640Z,94163.86
2019-01-29T19:38:43.467Z,94163.86
2019-01-29T19:41:47.628Z,94165.80
2019-01-29T19:44:36.300Z,94154.43
2019-01-29T19:47:25.110Z,94154.43
2019-01-29T19:50:16.884Z,94151.95
2019-01-29T19:53:05.725Z,94148.80
2019-01-29T19:55:54.949Z,94144.28
2019-01-29T19:58:47.723Z,94144.28
2019-01-29T20:01:36.558Z,94133.72
2019-01-29T20:04:26.432Z,94126.80
2019-01-29T20:07:15.547Z,94126.80
2019-01-29T20:10:05.647Z,94119.28
2019-01-29T20:12:54.715Z,94107.13
2019-01-29T20:15:43.301Z,94107.13
2019-01-29T20:18:32.348Z,94099.33
2019-01-29T20:21:21.196Z,94098.20
2019-01-29T20:24:12.513Z,94094.71
2019-01-29T20:27:00.940Z,94094.71
2019-01-29T20:29:50.296Z,94090.12
2019-01-29T20:32:41.425Z,94090.12
2019-01-29T20:35:31.186Z,94078.16
2019-01-29T20:38:21.673Z,94081.36
2019-01-29T20:41:10.781Z,94073.68
2019-01-29T20:43:59.125Z,94062.33
2019-01-29T20:46:48.183Z,94070.05
2019-01-29T20:49:55.509Z,94062.72
2019-01-29T20:52:44.328Z,94060.14
2019-01-29T20:55:33.262Z,94056.66
2019-01-29T20:58:22.101Z,94056.66
2019-01-29T21:01:10.305Z,94053.31
2019-01-29T21:04:05.552Z,94049.75
2019-01-29T21:06:54.858Z,94040.25
2019-01-29T21:09:43.573Z,94026.25
2019-01-29T21:12:32.247Z,94023.41
2019-01-29T21:15:22.050Z,94023.41
2019-01-29T21:18:12.334Z,94011.78
2019-01-29T21:21:00.475Z,94009.13
2019-01-29T21:23:49.698Z,94008.63
2019-01-29T21:26:41.485Z,94008.52
2019-01-29T21:29:31.249Z,93998.62
2019-01-29T21:32:20.154Z,93998.62
2019-01-29T21:35:08.513Z,93985.84
2019-01-29T21:38:01.083Z,93980.48
2019-01-29T21:40:50.279Z,93967.96
2019-01-29T21:43:38.875Z,93962.07
2019-01-29T21:46:28.275Z,93965.14
2019-01-29T21:49:17.505Z,93964.23
2019-01-29T21:52:06.509Z,93960.38
2019-01-29T21:54:55.028Z,93955.86
2019-01-29T21:57:44.953Z,93955.69
2019-01-29T22:00:41.993Z,93931.63
2019-01-29T22:03:36.184Z,93941.84
2019-01-29T22:06:25.515Z,93931.05
2019-01-29T22:09:14.708Z,93938.41
2019-01-29T22:12:04.071Z,93938.41
2019-01-29T22:14:52.227Z,93932.52
2019-01-29T22:17:40.804Z,93927.14
2019-01-29T22:20:28.818Z,93931.69
2019-01-29T22:23:16.911Z,93913.48
2019-01-29T22:26:05.350Z,93913.48
2019-01-29T22:28:54.508Z,93910.77
2019-01-29T22:31:43.824Z,93914.33
2019-01-29T22:34:32.000Z,93899.84
2019-01-29T22:37:20.606Z,93896.20
2019-01-29T22:40:12.062Z,93899.98
2019-01-29T22:43:01.213Z,93899.98
2019-01-29T22:45:50.533Z,93890.06
2019-01-29T22:48:39.242Z,93890.06
2019-01-29T22:51:27.581Z,93890.28
2019-01-29T22:54:15.493Z,93885.92
2019-01-29T22:57:04.162Z,93873.53
2019-01-29T22:59:52.795Z,93872.88
2019-01-29T23:02:41.516Z,93868.67
2019-01-29T23:05:30.616Z,93864.63
2019-01-29T23:08:19.408Z,93848.75
2019-01-29T23:11:07.815Z,93848.75
2019-01-29T23:13:56.504Z,93841.16
2019-01-29T23:16:45.430Z,93837.25
2019-01-29T23:19:34.523Z,93830.64
2019-01-29T23:22:22.895Z,93822.10
2019-01-29T23:25:11.821Z,93822.75
2019-01-29T23:28:00.404Z,93814.62
2019-01-29T23:30:49.210Z,93814.62
2019-01-29T23:33:38.056Z,93806.97
2019-01-29T23:36:26.008Z,93806.97
2019-01-29T23:39:14.562Z,93817.65
2019-01-29T23:42:03.551Z,93813.61
2019-01-29T23:44:52.462Z,93809.27
2019-01-29T23:47:41.152Z,93800.52
2019-01-29T23:50:31.041Z,93795.97
2019-01-29T23:53:20.206Z,93789.77
2019-01-29T23:56:10.661Z,93787.66
2019-01-29T23:58:59.341Z,93788.34
